Time;durP1;ratioP1;P1;durP2;ratioP2;P2;SDS_P1;SDS_P2;PMS_P1;PMS_P2;Temp;Humidity;BMP_temperature;BMP_pressure;BME280_temperature;BME280_humidity;BME280_pressure;Samples;Min_cycle;Max_cycle;Signal;HPM_P1;HPM_P2
2023/05/25 00:02:14;;;;;;;7.60;5.37;;;14.80;50.90;;;;;;5018882;28;20662;-87
2023/05/25 00:04:40;;;;;;;7.73;5.20;;;14.60;52.40;;;;;;5019972;28;20223;-86
2023/05/25 00:07:05;;;;;;;6.33;4.90;;;14.30;53.70;;;;;;5019074;28;20191;-87
2023/05/25 00:12:15;;;;;;;7.90;4.83;;;14.10;54.00;;;;;;5022856;28;20325;-87
2023/05/25 00:14:41;;;;;;;8.03;4.93;;;14.00;54.30;;;;;;5038853;28;20713;-87
2023/05/25 00:17:08;;;;;;;8.07;5.30;;;13.90;54.20;;;;;;5038589;28;20184;-87
2023/05/25 00:19:34;;;;;;;7.50;5.40;;;14.00;55.00;;;;;;5038539;28;20201;-88
2023/05/25 00:22:03;;;;;;;9.13;5.53;;;14.00;54.50;;;;;;5040902;28;20173;-86
2023/05/25 00:24:30;;;;;;;7.57;5.10;;;13.90;55.70;;;;;;5036596;28;20296;-88
2023/05/25 00:26:56;;;;;;;9.13;5.40;;;13.80;56.00;;;;;;5001276;28;20192;-87
2023/05/25 00:29:22;;;;;;;8.20;6.00;;;13.60;55.80;;;;;;5001984;28;20313;-87
2023/05/25 00:31:49;;;;;;;10.23;5.57;;;13.50;56.60;;;;;;5020122;28;20199;-87
2023/05/25 00:34:15;;;;;;;6.30;5.47;;;13.50;56.80;;;;;;5019431;28;20207;-87
2023/05/25 00:36:47;;;;;;;6.70;5.37;;;13.30;58.30;;;;;;5017321;28;20175;-87
2023/05/25 00:39:17;;;;;;;8.10;5.17;;;13.20;58.60;;;;;;5018877;28;20284;-87
2023/05/25 00:41:46;;;;;;;6.97;5.60;;;13.10;59.00;;;;;;5009276;28;20179;-86
2023/05/25 00:44:14;;;;;;;7.87;5.67;;;13.00;59.30;;;;;;5018136;28;20233;-87
2023/05/25 00:46:46;;;;;;;9.17;5.47;;;12.90;60.00;;;;;;5018397;28;20714;-86
2023/05/25 00:49:17;;;;;;;8.10;4.70;;;12.70;60.50;;;;;;5018276;28;20247;-86
2023/05/25 00:51:47;;;;;;;7.90;5.33;;;12.80;59.90;;;;;;5018266;28;20157;-87
2023/05/25 00:54:19;;;;;;;6.43;5.33;;;12.70;59.70;;;;;;5018222;28;20179;-87
2023/05/25 00:56:54;;;;;;;7.03;5.17;;;13.00;59.10;;;;;;5019684;28;20211;-87
2023/05/25 00:59:50;;;;;;;8.20;5.07;;;12.90;59.10;;;;;;5020875;28;20220;-87
2023/05/25 01:02:18;;;;;;;6.87;5.20;;;12.80;59.30;;;;;;5017265;28;20193;-86
2023/05/25 01:04:51;;;;;;;6.83;5.60;;;12.70;59.50;;;;;;5019623;28;20738;-86
2023/05/25 01:07:22;;;;;;;7.43;5.77;;;12.60;60.10;;;;;;5019355;28;20199;-87
2023/05/25 01:09:53;;;;;;;5.43;4.87;;;12.60;60.10;;;;;;5018176;28;20359;-87
2023/05/25 01:12:21;;;;;;;5.70;4.93;;;12.70;59.40;;;;;;5023674;28;20176;-87
2023/05/25 01:14:48;;;;;;;5.87;5.20;;;12.70;59.20;;;;;;5039187;28;20204;-87
2023/05/25 01:17:14;;;;;;;7.70;5.30;;;12.60;59.10;;;;;;5010280;28;20655;-87
2023/05/25 01:19:44;;;;;;;8.87;5.13;;;12.60;59.30;;;;;;4998255;28;20214;-86
2023/05/25 01:22:50;;;;;;;5.50;4.63;;;12.60;59.00;;;;;;4998812;28;20206;-87
2023/05/25 01:25:29;;;;;;;10.17;5.60;;;12.60;58.70;;;;;;4998448;28;20236;-86
2023/05/25 01:28:08;;;;;;;8.37;5.00;;;12.60;58.90;;;;;;5017024;28;20194;-87
2023/05/25 01:30:38;;;;;;;8.17;4.97;;;12.70;58.70;;;;;;5017527;28;20174;-86
2023/05/25 01:33:05;;;;;;;8.23;4.90;;;12.80;58.40;;;;;;5017616;28;20168;-84
2023/05/25 01:35:31;;;;;;;7.23;4.87;;;12.70;58.40;;;;;;5016099;28;20236;-86
2023/05/25 01:37:57;;;;;;;7.50;5.47;;;12.70;58.80;;;;;;5015704;28;20236;-87
2023/05/25 01:40:23;;;;;;;9.47;5.23;;;12.70;58.90;;;;;;5017113;28;20661;-87
2023/05/25 01:42:49;;;;;;;8.10;5.43;;;12.80;58.70;;;;;;5018226;28;20181;-87
2023/05/25 01:45:15;;;;;;;8.23;5.20;;;12.80;58.90;;;;;;5018810;28;20234;-87
2023/05/25 01:48:01;;;;;;;11.13;5.90;;;12.80;58.50;;;;;;5018024;28;20261;-87
2023/05/25 01:50:40;;;;;;;7.00;4.70;;;12.60;58.70;;;;;;5010621;28;20575;-87
2023/05/25 01:53:10;;;;;;;7.30;5.13;;;12.40;59.80;;;;;;5000057;28;20256;-87
2023/05/25 01:55:42;;;;;;;8.33;5.23;;;12.40;59.80;;;;;;5000237;28;20205;-87
2023/05/25 01:58:08;;;;;;;10.60;5.37;;;12.40;60.00;;;;;;5002554;28;20198;-88
2023/05/25 02:00:35;;;;;;;5.97;5.23;;;12.30;60.80;;;;;;5017877;28;20226;-86
2023/05/25 02:03:02;;;;;;;7.00;4.73;;;12.30;60.60;;;;;;5019396;28;20222;-87
2023/05/25 02:05:28;;;;;;;7.73;5.00;;;12.40;60.20;;;;;;5019146;28;20193;-87
2023/05/25 02:07:53;;;;;;;7.30;5.30;;;12.30;60.10;;;;;;5019322;28;20528;-89
2023/05/25 02:10:19;;;;;;;11.33;5.40;;;12.20;60.30;;;;;;5018845;28;20559;-87
2023/05/25 02:12:45;;;;;;;6.47;4.63;;;12.20;60.50;;;;;;5026840;28;20184;-87
2023/05/25 02:15:11;;;;;;;6.97;4.53;;;12.30;60.40;;;;;;5024373;28;20212;-87
2023/05/25 02:17:37;;;;;;;10.20;5.50;;;12.40;60.20;;;;;;5009686;28;20300;-88
2023/05/25 02:20:05;;;;;;;7.73;5.30;;;12.40;60.20;;;;;;4998446;28;20203;-87
2023/05/25 02:22:31;;;;;;;7.70;5.23;;;12.40;60.10;;;;;;5003744;28;20388;-87
2023/05/25 02:24:57;;;;;;;5.90;5.13;;;12.40;60.10;;;;;;5017697;28;20247;-87
2023/05/25 02:27:23;;;;;;;7.57;5.10;;;12.40;60.20;;;;;;5015188;28;20181;-86
2023/05/25 02:29:48;;;;;;;8.17;5.00;;;12.20;60.90;;;;;;4996539;28;20240;-87
2023/05/25 02:32:14;;;;;;;8.53;5.40;;;12.30;61.00;;;;;;4995692;28;20221;-87
2023/05/25 02:34:40;;;;;;;7.63;5.10;;;12.40;60.90;;;;;;4994405;28;20240;-87
2023/05/25 02:37:06;;;;;;;5.80;4.70;;;12.50;61.10;;;;;;4995575;28;20173;-87
2023/05/25 02:39:32;;;;;;;8.40;4.77;;;12.60;60.90;;;;;;4995167;28;20215;-87
2023/05/25 02:41:57;;;;;;;9.03;5.37;;;12.60;61.40;;;;;;4995589;28;20353;-88
2023/05/25 02:44:23;;;;;;;7.47;5.43;;;12.50;62.10;;;;;;4995656;28;20212;-88
2023/05/25 02:46:49;;;;;;;11.20;5.20;;;12.60;62.30;;;;;;4995504;28;20189;-87
2023/05/25 02:49:14;;;;;;;7.43;4.97;;;12.50;63.70;;;;;;4996409;28;20181;-87
2023/05/25 02:51:40;;;;;;;7.80;5.60;;;12.30;64.80;;;;;;4996348;28;20737;-87
2023/05/25 02:54:05;;;;;;;9.00;6.40;;;12.00;66.50;;;;;;4997521;28;20220;-87
2023/05/25 02:56:31;;;;;;;8.57;5.77;;;12.00;67.20;;;;;;4996912;28;20216;-87
2023/05/25 02:58:57;;;;;;;9.07;6.20;;;12.00;67.60;;;;;;4997580;28;20209;-87
2023/05/25 03:01:24;;;;;;;9.50;5.77;;;12.20;67.10;;;;;;4996943;28;20173;-86
2023/05/25 03:03:53;;;;;;;14.57;5.73;;;12.20;66.90;;;;;;4998511;28;20464;-87
2023/05/25 03:06:20;;;;;;;8.13;5.63;;;12.10;67.50;;;;;;4997558;28;20206;-86
2023/05/25 03:08:46;;;;;;;10.63;6.43;;;12.20;67.40;;;;;;4997781;28;20178;-87
2023/05/25 03:11:11;;;;;;;8.17;6.20;;;12.30;67.20;;;;;;4997089;28;20729;-86
2023/05/25 03:13:37;;;;;;;8.30;6.23;;;12.20;67.70;;;;;;5028233;28;20287;-86
2023/05/25 03:16:03;;;;;;;11.00;6.50;;;12.10;68.10;;;;;;5036099;28;20231;-86
2023/05/25 03:18:28;;;;;;;9.23;6.20;;;12.20;68.00;;;;;;5033814;28;20251;-87
2023/05/25 03:20:54;;;;;;;8.87;6.50;;;12.30;68.10;;;;;;5016790;28;20654;-88
2023/05/25 03:23:20;;;;;;;12.80;5.97;;;12.20;68.40;;;;;;5000988;28;20181;-87
2023/05/25 03:25:45;;;;;;;10.50;6.67;;;12.20;68.50;;;;;;5007318;28;20204;-87
2023/05/25 03:28:11;;;;;;;8.93;6.30;;;12.20;68.70;;;;;;5018909;28;20194;-87
2023/05/25 03:30:37;;;;;;;11.33;6.37;;;12.10;69.20;;;;;;5018766;28;20186;-89
2023/05/25 03:33:02;;;;;;;10.53;6.70;;;12.10;69.40;;;;;;5017324;28;20187;-87
2023/05/25 03:35:28;;;;;;;8.87;6.17;;;12.20;69.20;;;;;;5018393;28;20842;-86
2023/05/25 03:37:54;;;;;;;9.70;6.30;;;12.30;68.90;;;;;;5017074;28;20238;-89
2023/05/25 03:40:19;;;;;;;8.50;6.07;;;12.10;69.30;;;;;;5022609;28;20256;-88
2023/05/25 03:42:45;;;;;;;8.93;6.20;;;12.00;69.90;;;;;;5021581;28;20212;-88
2023/05/25 03:45:11;;;;;;;6.97;6.00;;;12.10;69.80;;;;;;5018303;28;20237;-88
2023/05/25 03:47:36;;;;;;;9.03;6.00;;;11.90;70.80;;;;;;5019115;28;20195;-86
2023/05/25 03:50:05;;;;;;;9.17;5.97;;;11.90;71.00;;;;;;5017769;28;20179;-87
2023/05/25 03:52:32;;;;;;;13.70;7.40;;;12.00;71.30;;;;;;4999234;28;20402;-86
2023/05/25 03:54:57;;;;;;;11.00;6.77;;;12.00;70.80;;;;;;4998482;28;20418;-86
2023/05/25 03:57:23;;;;;;;10.43;6.20;;;12.00;70.90;;;;;;5000145;28;20206;-88
2023/05/25 03:59:49;;;;;;;8.73;6.77;;;12.00;71.00;;;;;;4999679;28;20596;-88
2023/05/25 04:02:14;;;;;;;13.23;6.50;;;12.00;71.20;;;;;;4999610;28;20277;-85
2023/05/25 04:04:40;;;;;;;10.20;6.23;;;11.90;71.50;;;;;;5001086;28;20218;-89
2023/05/25 04:07:06;;;;;;;9.73;6.17;;;12.00;71.40;;;;;;5000040;28;20178;-88
2023/05/25 04:09:32;;;;;;;11.20;6.93;;;11.90;71.90;;;;;;5017317;28;20270;-87
2023/05/25 04:11:58;;;;;;;12.53;6.20;;;11.70;73.00;;;;;;5016839;28;20415;-86
2023/05/25 04:14:23;;;;;;;7.03;5.90;;;11.60;73.70;;;;;;5024947;28;20206;-88
2023/05/25 04:16:49;;;;;;;9.40;5.90;;;11.60;74.00;;;;;;5018381;28;20211;-87
2023/05/25 04:19:14;;;;;;;7.70;5.33;;;11.60;74.10;;;;;;5017199;28;20238;-87
2023/05/25 04:21:40;;;;;;;9.90;6.50;;;11.60;74.20;;;;;;5016502;28;20178;-87
2023/05/25 04:24:06;;;;;;;10.60;6.37;;;11.40;75.40;;;;;;5017639;28;20184;-86
2023/05/25 04:26:32;;;;;;;6.63;5.70;;;11.50;75.10;;;;;;5015762;28;20319;-88
2023/05/25 04:29:00;;;;;;;10.37;6.00;;;11.40;75.50;;;;;;5016355;28;20402;-87
2023/05/25 04:31:26;;;;;;;11.37;5.87;;;11.50;75.20;;;;;;4999892;28;20181;-87
2023/05/25 04:33:54;;;;;;;8.63;6.43;;;11.60;74.90;;;;;;5004479;28;20178;-87
2023/05/25 04:36:21;;;;;;;12.20;6.43;;;11.70;74.90;;;;;;5017844;28;20298;-85
2023/05/25 04:38:47;;;;;;;9.57;6.20;;;11.70;74.50;;;;;;5018843;28;20203;-85
2023/05/25 04:41:14;;;;;;;11.00;5.77;;;11.90;73.80;;;;;;5018073;28;20202;-86
2023/05/25 04:43:39;;;;;;;10.63;6.37;;;12.00;73.70;;;;;;5001342;28;20224;-85
2023/05/25 04:46:06;;;;;;;9.70;6.33;;;11.90;74.20;;;;;;5000476;28;20497;-85
2023/05/25 04:48:33;;;;;;;12.10;6.20;;;11.80;73.90;;;;;;5001433;28;20597;-85
2023/05/25 04:51:03;;;;;;;8.97;5.97;;;11.70;74.90;;;;;;5001195;28;20180;-84
2023/05/25 04:53:29;;;;;;;11.93;5.93;;;11.80;74.50;;;;;;5001551;28;20193;-84
2023/05/25 04:55:54;;;;;;;9.43;5.70;;;11.80;74.20;;;;;;5013714;28;20226;-85
2023/05/25 04:58:21;;;;;;;11.07;5.77;;;11.70;75.00;;;;;;5021176;28;20342;-86
2023/05/25 05:00:47;;;;;;;8.73;6.33;;;11.80;74.50;;;;;;5007770;28;20193;-86
2023/05/25 05:03:12;;;;;;;8.93;5.60;;;11.70;74.00;;;;;;5019983;28;20187;-86
2023/05/25 05:05:38;;;;;;;9.20;5.87;;;11.70;74.60;;;;;;5019462;28;20230;-85
2023/05/25 05:08:04;;;;;;;7.90;6.00;;;11.70;74.40;;;;;;5026791;28;20218;-86
2023/05/25 05:10:30;;;;;;;8.27;5.70;;;11.70;73.70;;;;;;5008407;28;20215;-85
2023/05/25 05:12:55;;;;;;;10.33;5.53;;;11.70;73.60;;;;;;5015681;28;20193;-86
2023/05/25 05:15:21;;;;;;;10.70;5.97;;;11.90;73.10;;;;;;5019532;28;20663;-86
2023/05/25 05:17:46;;;;;;;10.57;6.87;;;11.80;72.50;;;;;;5019137;28;20230;-85
2023/05/25 05:20:12;;;;;;;9.93;5.43;;;11.70;72.80;;;;;;5011463;28;20182;-86
2023/05/25 05:22:38;;;;;;;13.27;5.93;;;11.70;73.10;;;;;;4999228;28;20604;-85
2023/05/25 05:25:04;;;;;;;10.33;5.83;;;11.70;73.60;;;;;;4997883;28;20198;-85
2023/05/25 05:27:29;;;;;;;9.80;5.67;;;11.70;72.50;;;;;;5001214;28;20176;-86
2023/05/25 05:29:55;;;;;;;10.30;6.17;;;11.70;72.50;;;;;;4999882;28;20193;-85
2023/05/25 05:32:21;;;;;;;10.93;6.17;;;11.80;71.50;;;;;;5019009;28;20208;-86
2023/05/25 05:34:47;;;;;;;10.27;5.83;;;11.70;71.90;;;;;;5018879;28;20568;-86
2023/05/25 05:37:12;;;;;;;9.83;5.97;;;11.60;71.80;;;;;;5019249;28;20185;-86
2023/05/25 05:39:38;;;;;;;11.57;5.80;;;11.70;72.00;;;;;;5018836;28;20281;-85
2023/05/25 05:42:04;;;;;;;13.53;6.20;;;11.70;71.80;;;;;;5019487;28;20207;-83
2023/05/25 05:44:30;;;;;;;12.87;5.93;;;11.90;71.40;;;;;;5019239;28;20234;-84
2023/05/25 05:47:02;;;;;;;11.67;5.83;;;11.80;71.30;;;;;;5001798;28;20198;-85
2023/05/25 05:49:31;;;;;;;12.27;6.17;;;11.90;70.70;;;;;;5001053;28;20189;-87
2023/05/25 05:51:57;;;;;;;7.70;5.77;;;11.90;70.10;;;;;;5000366;28;20195;-87
2023/05/25 05:54:23;;;;;;;10.10;6.03;;;12.00;69.20;;;;;;5000737;28;20191;-85
2023/05/25 05:56:49;;;;;;;11.37;5.70;;;12.20;68.70;;;;;;5000607;28;20715;-85
2023/05/25 05:59:15;;;;;;;12.63;6.63;;;12.20;68.40;;;;;;5001151;28;20196;-87
2023/05/25 06:01:41;;;;;;;10.20;5.90;;;12.30;68.60;;;;;;4999024;28;20198;-86
2023/05/25 06:04:07;;;;;;;10.33;5.27;;;12.30;67.90;;;;;;4997627;28;20567;-85
2023/05/25 06:06:33;;;;;;;7.73;5.50;;;12.30;67.80;;;;;;5001239;28;20284;-84
2023/05/25 06:09:02;;;;;;;10.67;5.43;;;12.50;66.30;;;;;;5017373;28;20307;-84
2023/05/25 06:11:28;;;;;;;11.53;5.90;;;12.50;65.80;;;;;;5004276;28;20255;-85
2023/05/25 06:13:53;;;;;;;10.70;5.27;;;12.60;64.80;;;;;;5014200;28;20202;-85
2023/05/25 06:16:19;;;;;;;10.63;6.10;;;12.40;65.40;;;;;;5013667;28;20216;-85
2023/05/25 06:18:45;;;;;;;7.87;5.37;;;12.50;65.10;;;;;;5014399;28;20208;-85
2023/05/25 06:21:10;;;;;;;14.27;5.73;;;12.50;65.80;;;;;;5013809;28;20188;-85
2023/05/25 06:23:36;;;;;;;10.53;5.70;;;12.40;64.90;;;;;;5015839;28;20251;-85
2023/05/25 06:26:05;;;;;;;11.23;5.60;;;12.50;65.10;;;;;;5012815;28;20238;-85
2023/05/25 06:28:31;;;;;;;8.10;5.70;;;12.70;65.40;;;;;;5015750;28;20183;-85
2023/05/25 06:30:57;;;;;;;9.27;5.60;;;12.80;64.50;;;;;;5001542;28;20729;-86
2023/05/25 06:33:23;;;;;;;11.33;5.80;;;12.90;64.30;;;;;;4995919;28;20197;-86
2023/05/25 06:35:48;;;;;;;9.77;5.60;;;13.00;63.90;;;;;;4994903;28;20276;-87
2023/05/25 06:38:14;;;;;;;7.80;5.20;;;13.20;63.00;;;;;;4995378;28;20224;-87
2023/05/25 06:40:40;;;;;;;9.73;5.90;;;13.30;61.80;;;;;;4996318;28;20632;-89
2023/05/25 06:43:05;;;;;;;7.43;5.83;;;13.50;61.60;;;;;;4997319;28;20186;-86
2023/05/25 06:45:31;;;;;;;10.90;5.23;;;13.60;60.30;;;;;;4995763;28;20198;-87
2023/05/25 06:47:56;;;;;;;10.33;5.67;;;13.70;60.70;;;;;;4996708;28;20197;-86
2023/05/25 06:50:22;;;;;;;11.73;6.10;;;13.90;60.50;;;;;;4997720;28;20260;-88
2023/05/25 06:52:48;;;;;;;8.97;5.60;;;13.80;60.80;;;;;;4998364;28;20197;-86
2023/05/25 06:55:13;;;;;;;8.10;5.20;;;13.90;60.40;;;;;;5014510;28;20214;-86
2023/05/25 06:57:39;;;;;;;9.90;5.43;;;14.20;60.70;;;;;;5018097;28;20179;-85
2023/05/25 07:00:06;;;;;;;8.37;5.83;;;14.50;58.80;;;;;;5016593;28;20254;-86
2023/05/25 07:02:33;;;;;;;7.80;5.67;;;14.60;57.50;;;;;;4996854;28;20558;-86
2023/05/25 07:04:59;;;;;;;11.07;6.13;;;14.50;58.00;;;;;;5010682;28;20207;-86
2023/05/25 07:07:25;;;;;;;13.00;6.33;;;14.40;57.40;;;;;;5014970;28;20266;-86
2023/05/25 07:09:50;;;;;;;11.83;5.87;;;14.50;57.30;;;;;;5016329;28;20330;-85
2023/05/25 07:12:17;;;;;;;9.63;6.13;;;14.50;57.20;;;;;;5020558;28;20292;-86
2023/05/25 07:14:46;;;;;;;9.83;5.97;;;14.60;58.00;;;;;;5024681;28;20197;-85
2023/05/25 07:17:15;;;;;;;9.07;5.83;;;14.80;57.70;;;;;;5016567;28;20558;-86
2023/05/25 07:19:42;;;;;;;8.50;5.90;;;14.90;58.00;;;;;;5016242;28;20206;-86
2023/05/25 07:22:09;;;;;;;10.10;5.80;;;15.00;57.40;;;;;;5015459;28;20169;-86
2023/05/25 07:24:34;;;;;;;7.77;5.70;;;15.20;57.00;;;;;;5016168;28;20303;-86
2023/05/25 07:27:01;;;;;;;9.70;5.93;;;15.20;57.20;;;;;;5015860;28;20195;-87
2023/05/25 07:29:27;;;;;;;10.07;5.80;;;15.30;56.50;;;;;;5016789;28;20611;-86
2023/05/25 07:31:52;;;;;;;10.67;6.17;;;15.30;56.80;;;;;;5002933;28;20306;-87
2023/05/25 07:34:19;;;;;;;13.17;6.27;;;15.20;57.10;;;;;;5015140;28;20468;-88
2023/05/25 07:36:45;;;;;;;12.03;6.20;;;15.40;58.10;;;;;;4995309;28;20177;-87
2023/05/25 07:39:10;;;;;;;7.97;6.10;;;15.50;56.40;;;;;;4996062;28;20302;-87
2023/05/25 07:41:37;;;;;;;14.83;6.13;;;15.60;55.90;;;;;;5002606;28;20189;-86
2023/05/25 07:44:02;;;;;;;12.07;6.50;;;15.60;56.00;;;;;;4997326;28;20185;-87
2023/05/25 07:46:28;;;;;;;11.37;6.37;;;15.60;56.40;;;;;;4995860;28;20937;-87
2023/05/25 07:48:55;;;;;;;12.50;6.67;;;15.70;56.10;;;;;;5005839;28;20693;-85
2023/05/25 07:51:25;;;;;;;6.33;5.73;;;15.70;56.50;;;;;;5010878;28;20182;-87
2023/05/25 07:53:52;;;;;;;9.20;6.37;;;15.80;56.40;;;;;;5015759;28;20562;-87
2023/05/25 07:56:18;;;;;;;10.87;6.40;;;15.90;55.60;;;;;;5004621;28;20206;-87
2023/05/25 07:58:44;;;;;;;12.67;6.43;;;16.10;55.90;;;;;;4996383;28;20225;-87
2023/05/25 08:01:10;;;;;;;15.57;6.70;;;16.20;55.50;;;;;;5003842;28;20191;-88
2023/05/25 08:03:35;;;;;;;9.20;6.33;;;16.30;54.90;;;;;;5015999;28;20235;-87
2023/05/25 08:06:01;;;;;;;14.17;6.47;;;16.50;54.70;;;;;;5011965;28;20289;-87
2023/05/25 08:08:26;;;;;;;9.13;6.77;;;16.60;54.50;;;;;;4994822;28;20187;-87
2023/05/25 08:10:52;;;;;;;10.30;6.07;;;16.70;54.80;;;;;;4996278;28;20188;-87
2023/05/25 08:13:18;;;;;;;10.20;6.77;;;17.00;54.00;;;;;;5014985;28;20255;-87
2023/05/25 08:15:43;;;;;;;9.00;6.80;;;16.90;53.60;;;;;;5018136;28;20193;-87
2023/05/25 08:18:09;;;;;;;12.20;6.90;;;17.10;53.30;;;;;;5017735;28;20207;-86
2023/05/25 08:20:35;;;;;;;9.40;6.33;;;17.20;53.00;;;;;;5006283;28;20495;-87
2023/05/25 08:23:01;;;;;;;10.67;6.80;;;17.20;52.60;;;;;;4998474;28;20176;-88
2023/05/25 08:25:26;;;;;;;10.13;6.33;;;17.40;52.00;;;;;;4997946;28;20211;-87
2023/05/25 08:27:52;;;;;;;9.57;6.60;;;17.40;52.30;;;;;;5014589;28;20197;-86
2023/05/25 08:30:18;;;;;;;10.90;6.90;;;17.60;52.30;;;;;;5018263;28;20186;-87
2023/05/25 08:32:44;;;;;;;7.37;6.30;;;17.70;51.90;;;;;;5019417;28;20188;-87
2023/05/25 08:35:09;;;;;;;9.57;7.00;;;17.70;51.80;;;;;;5014438;28;20357;-88
2023/05/25 08:37:35;;;;;;;15.87;8.20;;;17.70;51.80;;;;;;5017283;28;20214;-89
2023/05/25 08:40:01;;;;;;;10.83;7.30;;;17.90;51.40;;;;;;5017477;28;20204;-88
2023/05/25 08:42:27;;;;;;;11.77;7.20;;;18.00;51.10;;;;;;4999387;28;20187;-88
2023/05/25 08:44:53;;;;;;;13.43;7.67;;;18.10;50.60;;;;;;4995732;28;20279;-87
2023/05/25 08:47:21;;;;;;;12.17;7.50;;;18.20;50.40;;;;;;4996468;28;20221;-88
2023/05/25 08:49:48;;;;;;;8.27;7.47;;;18.10;50.60;;;;;;4998259;28;20729;-87
2023/05/25 08:52:20;;;;;;;9.30;6.67;;;17.80;50.90;;;;;;4998356;28;20631;-86
2023/05/25 08:54:46;;;;;;;10.60;7.17;;;18.00;51.50;;;;;;4998772;28;20209;-88
2023/05/25 08:57:15;;;;;;;11.57;7.40;;;18.20;50.70;;;;;;5010709;28;20650;-86
2023/05/25 08:59:50;;;;;;;10.13;7.50;;;18.30;50.40;;;;;;5019012;28;20214;-87
2023/05/25 09:02:39;;;;;;;8.60;7.60;;;18.50;49.70;;;;;;5019041;28;20528;-87
2023/05/25 09:05:05;;;;;;;9.65;7.18;;;18.50;50.10;;;;;;5015840;28;20216;-88
2023/05/25 09:07:31;;;;;;;9.13;7.45;;;18.80;49.90;;;;;;5015317;28;20179;-86
2023/05/25 09:09:59;;;;;;;10.55;7.18;;;19.20;49.20;;;;;;5016081;28;20191;-86
2023/05/25 09:12:30;;;;;;;11.60;7.55;;;19.30;48.10;;;;;;5021446;28;20197;-87
2023/05/25 09:14:57;;;;;;;11.43;8.10;;;19.30;48.50;;;;;;5037096;28;20257;-86
2023/05/25 09:17:23;;;;;;;11.75;8.18;;;19.50;47.60;;;;;;5036370;28;20567;-86
2023/05/25 09:19:49;;;;;;;10.10;7.90;;;19.70;48.00;;;;;;5038609;28;20270;-86
2023/05/25 09:22:15;;;;;;;8.75;7.50;;;19.60;46.80;;;;;;5027211;28;20182;-88
2023/05/25 09:24:42;;;;;;;9.73;7.30;;;19.70;47.50;;;;;;5019336;28;20200;-85
2023/05/25 09:27:14;;;;;;;11.13;7.80;;;19.80;48.20;;;;;;5018716;28;20713;-86
2023/05/25 09:29:40;;;;;;;9.60;7.90;;;20.00;46.60;;;;;;5020288;28;20186;-86
2023/05/25 09:32:06;;;;;;;9.68;8.32;;;20.20;46.50;;;;;;5019793;28;20674;-87
2023/05/25 09:34:34;;;;;;;14.00;8.65;;;20.30;46.40;;;;;;5019885;28;20193;-85
2023/05/25 09:37:12;;;;;;;11.93;8.48;;;20.20;46.30;;;;;;5018901;28;20194;-87
2023/05/25 09:39:40;;;;;;;11.88;8.52;;;20.20;46.50;;;;;;5020440;28;20235;-86
2023/05/25 09:42:06;;;;;;;9.23;7.57;;;20.50;46.90;;;;;;5018288;28;20249;-87
2023/05/25 09:44:32;;;;;;;7.88;7.15;;;20.60;46.10;;;;;;5016048;28;20205;-86
2023/05/25 09:46:57;;;;;;;10.85;8.38;;;20.40;46.30;;;;;;5017338;28;20264;-88
2023/05/25 09:49:24;;;;;;;11.15;8.10;;;20.30;46.40;;;;;;5017701;28;20193;-88
2023/05/25 09:51:50;;;;;;;10.70;8.20;;;20.50;45.90;;;;;;5015390;28;20181;-86
2023/05/25 09:54:16;;;;;;;10.90;7.45;;;20.70;46.90;;;;;;5010235;28;20243;-87
2023/05/25 09:56:43;;;;;;;11.32;7.55;;;21.00;45.20;;;;;;5016339;28;20188;-88
2023/05/25 09:59:11;;;;;;;11.93;7.88;;;21.10;43.80;;;;;;5016768;28;20596;-87
2023/05/25 10:01:37;;;;;;;8.50;7.65;;;20.70;43.80;;;;;;5015533;28;20188;-87
2023/05/25 10:04:03;;;;;;;12.77;8.13;;;20.70;44.10;;;;;;5016268;28;20182;-87
2023/05/25 10:06:30;;;;;;;15.48;7.95;;;20.90;42.90;;;;;;5017365;28;20212;-86
2023/05/25 10:08:56;;;;;;;8.20;7.13;;;21.20;41.80;;;;;;5017722;28;20223;-88
2023/05/25 10:11:25;;;;;;;10.02;7.70;;;21.50;40.60;;;;;;5016457;28;20767;-87
2023/05/25 10:13:52;;;;;;;10.02;7.65;;;21.60;40.40;;;;;;5014086;28;20178;-88
2023/05/25 10:16:21;;;;;;;9.18;7.60;;;21.70;40.70;;;;;;5017382;28;20208;-87
2023/05/25 10:19:11;;;;;;;7.93;7.22;;;21.80;39.80;;;;;;5016709;28;20254;-88
2023/05/25 10:21:38;;;;;;;9.20;8.18;;;22.00;38.60;;;;;;5017600;28;20707;-86
2023/05/25 10:24:10;;;;;;;8.45;7.55;;;21.90;39.40;;;;;;5016792;28;20191;-87
2023/05/25 10:26:39;;;;;;;11.18;7.70;;;22.00;39.40;;;;;;5017806;28;20163;-88
2023/05/25 10:29:07;;;;;;;8.45;7.63;;;22.00;38.90;;;;;;5017519;28;20195;-88
2023/05/25 10:31:36;;;;;;;9.00;7.20;;;22.30;38.40;;;;;;5003402;28;20572;-87
2023/05/25 10:34:02;;;;;;;10.50;8.23;;;22.20;38.20;;;;;;4998103;28;20313;-87
2023/05/25 10:36:29;;;;;;;9.38;7.68;;;22.10;39.30;;;;;;4997477;28;20226;-87
2023/05/25 10:38:55;;;;;;;9.35;7.70;;;22.20;38.30;;;;;;4996334;28;20205;-89
2023/05/25 10:41:21;;;;;;;9.25;7.68;;;22.50;38.00;;;;;;4997003;28;20182;-88
2023/05/25 10:43:48;;;;;;;12.43;7.72;;;22.70;37.40;;;;;;4996859;28;20183;-87
2023/05/25 10:46:15;;;;;;;11.23;8.18;;;22.70;37.60;;;;;;4997488;28;20260;-88
2023/05/25 10:48:47;;;;;;;10.23;8.77;;;22.80;37.70;;;;;;5001802;28;20197;-87
2023/05/25 10:51:13;;;;;;;9.98;7.97;;;23.00;37.60;;;;;;5012056;28;20193;-85
2023/05/25 10:53:59;;;;;;;9.88;8.00;;;22.60;37.90;;;;;;5010850;28;20181;-88
2023/05/25 10:56:25;;;;;;;8.48;7.68;;;23.10;37.20;;;;;;5015734;28;20212;-88
2023/05/25 10:58:52;;;;;;;10.02;8.77;;;23.20;36.60;;;;;;5015373;28;20262;-87
2023/05/25 11:01:17;;;;;;;10.27;8.13;;;23.10;36.50;;;;;;5013799;28;20177;-88
2023/05/25 11:03:43;;;;;;;11.55;8.00;;;23.50;35.80;;;;;;5015817;28;20563;-88
2023/05/25 11:06:14;;;;;;;9.23;8.02;;;23.80;35.90;;;;;;5016482;28;20209;-88
2023/05/25 11:08:59;;;;;;;11.45;7.93;;;23.90;35.40;;;;;;5015728;28;20181;-89
2023/05/25 11:11:44;;;;;;;9.25;8.25;;;23.90;34.40;;;;;;5007623;28;20181;-88
2023/05/25 11:14:27;;;;;;;9.57;8.65;;;24.20;35.60;;;;;;4996023;28;20185;-87
2023/05/25 11:17:13;;;;;;;11.18;8.38;;;24.10;35.00;;;;;;4996480;28;20166;-88
2023/05/25 11:19:42;;;;;;;9.23;8.30;;;24.40;34.60;;;;;;4995065;28;20260;-88
2023/05/25 11:22:22;;;;;;;10.80;8.95;;;24.50;35.00;;;;;;5007314;28;20185;-89
2023/05/25 11:24:52;;;;;;;29.52;12.38;;;24.40;34.60;;;;;;5005969;28;20209;-88
2023/05/25 11:27:22;;;;;;;9.15;8.35;;;24.40;34.30;;;;;;5005939;28;20496;-87
2023/05/25 11:29:52;;;;;;;9.63;8.73;;;24.40;34.40;;;;;;5005806;28;20779;-87
2023/05/25 11:32:18;;;;;;;11.30;9.05;;;24.80;34.20;;;;;;5007705;28;20243;-86
2023/05/25 11:34:45;;;;;;;10.30;9.43;;;24.90;33.30;;;;;;5005420;28;20213;-85
2023/05/25 11:37:14;;;;;;;9.13;8.32;;;25.20;32.90;;;;;;5007188;28;20469;-89
2023/05/25 11:39:41;;;;;;;11.32;10.10;;;25.20;33.30;;;;;;5007213;28;20232;-88
2023/05/25 11:42:10;;;;;;;10.98;10.07;;;25.40;32.60;;;;;;5007011;28;20186;-87
2023/05/25 11:44:35;;;;;;;10.70;9.73;;;25.50;32.30;;;;;;5003928;28;20944;-87
2023/05/25 11:47:07;;;;;;;11.52;9.90;;;25.80;31.50;;;;;;5009716;28;20181;-87
2023/05/25 11:49:34;;;;;;;10.55;9.73;;;25.60;32.20;;;;;;5009840;28;20185;-87
2023/05/25 11:52:05;;;;;;;10.73;9.73;;;25.90;32.10;;;;;;5010283;28;20796;-88
2023/05/25 11:54:31;;;;;;;12.45;11.20;;;26.20;31.30;;;;;;5004215;28;20215;-88
2023/05/25 11:56:58;;;;;;;13.18;11.95;;;26.60;30.20;;;;;;5007291;28;20895;-87
2023/05/25 11:59:28;;;;;;;13.20;12.18;;;26.70;30.20;;;;;;5009948;28;20292;-87
2023/05/25 12:02:01;;;;;;;13.35;12.32;;;26.70;30.00;;;;;;5008238;28;20189;-90
2023/05/25 12:04:28;;;;;;;13.85;12.73;;;26.90;29.90;;;;;;5006354;28;20200;-88
2023/05/25 12:07:06;;;;;;;14.10;13.13;;;26.60;29.90;;;;;;5009016;28;20552;-87
2023/05/25 12:09:33;;;;;;;14.02;13.10;;;26.70;29.70;;;;;;5010564;28;20608;-87
2023/05/25 12:11:59;;;;;;;12.98;12.18;;;26.70;30.40;;;;;;5006048;28;20204;-89
2023/05/25 12:14:25;;;;;;;13.75;12.70;;;27.20;30.00;;;;;;5006193;28;20959;-89
2023/05/25 12:16:51;;;;;;;15.18;13.95;;;27.20;29.70;;;;;;5010225;28;20556;-88
2023/05/25 12:19:17;;;;;;;15.23;14.35;;;27.30;29.20;;;;;;5007301;28;20241;-88
2023/05/25 12:21:43;;;;;;;15.85;14.85;;;27.40;29.60;;;;;;5007049;28;20239;-88
2023/05/25 12:24:13;;;;;;;15.30;14.30;;;27.30;29.40;;;;;;5009181;28;20285;-88
2023/05/25 12:26:49;;;;;;;14.52;13.63;;;27.80;29.20;;;;;;5011452;28;20595;-88
2023/05/25 12:29:15;;;;;;;17.23;16.02;;;27.80;28.90;;;;;;5007443;28;20637;-88
2023/05/25 12:31:41;;;;;;;17.80;16.60;;;28.20;28.70;;;;;;5009547;28;20185;-89
2023/05/25 12:34:12;;;;;;;17.10;15.98;;;27.80;28.60;;;;;;5009766;28;20343;-88
2023/05/25 12:36:46;;;;;;;15.73;14.82;;;27.70;28.80;;;;;;5008070;28;20200;-88
2023/05/25 12:39:17;;;;;;;15.60;14.43;;;28.10;28.80;;;;;;5007821;28;20586;-88
2023/05/25 12:41:52;;;;;;;16.02;14.93;;;28.60;28.60;;;;;;5010666;28;20201;-89
2023/05/25 12:44:30;;;;;;;15.98;15.05;;;28.40;27.80;;;;;;5008947;28;20296;-89
2023/05/25 12:46:56;;;;;;;16.35;15.45;;;28.40;28.00;;;;;;5011702;28;20184;-88